createdAt,value
2023-05-25T00:03:24.597Z,101553.97
2023-05-25T00:07:13.689Z,101551.84
2023-05-25T00:11:02.940Z,101549.39
2023-05-25T00:14:51.883Z,101552.66
2023-05-25T00:18:35.008Z,101555.05
2023-05-25T00:22:07.813Z,101554.75
2023-05-25T00:25:49.499Z,101558.69
2023-05-25T00:29:31.510Z,101557.92
2023-05-25T00:32:41.759Z,101558.64
2023-05-25T00:36:30.943Z,101560.28
2023-05-25T00:40:20.835Z,101561.96
2023-05-25T00:43:59.758Z,101561.05
2023-05-25T00:47:48.971Z,101563.01
2023-05-25T00:51:31.004Z,101566.83
2023-05-25T00:55:02.950Z,101560.80
2023-05-25T00:58:41.184Z,101567.30
2023-05-25T01:02:19.972Z,101565.00
2023-05-25T01:05:58.501Z,101561.77
2023-05-25T01:09:35.914Z,101565.78
2023-05-25T01:13:24.952Z,101568.28
2023-05-25T01:17:06.859Z,101568.58
2023-05-25T01:20:55.929Z,101569.04
2023-05-25T01:24:46.465Z,101563.45
2023-05-25T01:28:41.512Z,101565.98
2023-05-25T01:31:56.237Z,101569.57
2023-05-25T01:35:39.957Z,101573.17
2023-05-25T01:39:29.216Z,101573.33
2023-05-25T01:43:03.564Z,101570.70
2023-05-25T01:46:52.793Z,101567.30
2023-05-25T01:50:34.683Z,101567.81
2023-05-25T01:54:25.197Z,101572.07
2023-05-25T01:58:06.862Z,101571.70
2023-05-25T02:01:55.795Z,101570.45
2023-05-25T02:05:27.886Z,101572.45
2023-05-25T02:09:05.226Z,101577.42
2023-05-25T02:12:54.295Z,101574.89
2023-05-25T02:16:43.472Z,101580.05
2023-05-25T02:20:31.167Z,101585.05
2023-05-25T02:24:20.488Z,101583.83
2023-05-25T02:27:54.277Z,101580.30
2023-05-25T02:31:33.288Z,101575.70
2023-05-25T02:35:22.491Z,101580.24
2023-05-25T02:39:01.480Z,101586.43
2023-05-25T02:42:48.240Z,101591.40
2023-05-25T02:46:33.813Z,101588.84
2023-05-25T02:50:23.046Z,101592.66
2023-05-25T02:54:05.468Z,101592.16
2023-05-25T02:57:53.430Z,101596.45
2023-05-25T03:01:31.859Z,101595.83
2023-05-25T03:05:20.818Z,101597.65
2023-05-25T03:09:09.962Z,101595.62
2023-05-25T03:12:51.599Z,101597.46
2023-05-25T03:16:39.914Z,101596.17
2023-05-25T03:20:29.385Z,101597.10
2023-05-25T03:24:03.403Z,101595.89
2023-05-25T03:27:45.281Z,101598.31
2023-05-25T03:31:27.465Z,101601.17
2023-05-25T03:35:16.827Z,101605.39
2023-05-25T03:38:46.112Z,101606.51
2023-05-25T03:42:35.078Z,101607.14
2023-05-25T03:46:24.227Z,101607.13
2023-05-25T03:50:13.530Z,101600.40
2023-05-25T03:53:37.859Z,101601.70
2023-05-25T03:57:27.136Z,101608.58
2023-05-25T04:01:16.322Z,101605.05
2023-05-25T04:05:05.369Z,101615.19
2023-05-25T04:08:54.346Z,101613.33
2023-05-25T04:12:28.818Z,101622.58
2023-05-25T04:15:59.186Z,101623.38
2023-05-25T04:19:26.938Z,101619.92
2023-05-25T04:22:55.065Z,101617.64
2023-05-25T04:26:29.425Z,101619.36
2023-05-25T04:30:18.391Z,101623.01
2023-05-25T04:33:51.249Z,101622.77
2023-05-25T04:37:43.235Z,101623.46
2023-05-25T04:41:32.424Z,101624.55
2023-05-25T04:45:17.806Z,101622.23
2023-05-25T04:48:59.238Z,101620.94
2023-05-25T04:52:48.408Z,101626.55
2023-05-25T04:56:35.980Z,101628.31
2023-05-25T05:00:25.004Z,101626.77
2023-05-25T05:03:59.366Z,101633.43
2023-05-25T05:07:48.904Z,101636.16
2023-05-25T05:11:31.862Z,101637.70
2023-05-25T05:15:09.977Z,101636.77
2023-05-25T05:18:59.271Z,101634.93
2023-05-25T05:22:48.401Z,101631.70
2023-05-25T05:26:15.505Z,101633.14
2023-05-25T05:29:46.798Z,101637.23
2023-05-25T05:33:24.745Z,101642.52
2023-05-25T05:37:13.733Z,101642.99
2023-05-25T05:40:45.681Z,101638.18
2023-05-25T05:44:34.964Z,101633.73
2023-05-25T05:48:09.866Z,101637.39
2023-05-25T05:51:58.883Z,101636.50
2023-05-25T05:55:48.477Z,101636.41
2023-05-25T05:59:33.217Z,101636.80
2023-05-25T06:03:22.390Z,101635.95
2023-05-25T06:07:04.364Z,101640.69
2023-05-25T06:10:46.308Z,101642.48
2023-05-25T06:14:20.384Z,101646.90
2023-05-25T06:18:09.416Z,101646.52
2023-05-25T06:21:30.921Z,101644.07
2023-05-25T06:25:04.212Z,101649.15
2023-05-25T06:28:53.489Z,101652.23
2023-05-25T06:32:42.882Z,101657.66
2023-05-25T06:36:32.265Z,101657.28
2023-05-25T06:40:21.180Z,101663.13
2023-05-25T06:44:10.206Z,101662.83
2023-05-25T06:47:46.051Z,101666.58
2023-05-25T06:51:34.705Z,101667.08
2023-05-25T06:55:23.717Z,101662.04
2023-05-25T06:59:06.240Z,101661.12
2023-05-25T07:02:55.260Z,101664.40
2023-05-25T07:06:44.394Z,101663.11
2023-05-25T07:10:33.423Z,101661.66
2023-05-25T07:14:21.078Z,101659.89
2023-05-25T07:18:10.249Z,101657.05
2023-05-25T07:21:59.118Z,101661.59
2023-05-25T07:25:48.194Z,101660.06
2023-05-25T07:29:28.411Z,101665.04
2023-05-25T07:33:18.727Z,101657.70
2023-05-25T07:37:07.924Z,101659.92
2023-05-25T07:40:57.191Z,101660.35
2023-05-25T07:44:46.517Z,101657.04
2023-05-25T07:48:35.687Z,101667.45
2023-05-25T07:52:24.922Z,101659.10
2023-05-25T07:56:14.550Z,101663.30
2023-05-25T07:59:57.699Z,101663.91
2023-05-25T08:03:11.640Z,101665.23
2023-05-25T08:06:39.575Z,101673.09
2023-05-25T08:10:28.729Z,101671.89
2023-05-25T08:14:00.392Z,101669.15
2023-05-25T08:17:43.692Z,101674.33
2023-05-25T08:21:34.703Z,101671.57
2023-05-25T08:25:24.207Z,101677.44
2023-05-25T08:29:06.265Z,101678.75
2023-05-25T08:32:56.103Z,101669.52
2023-05-25T08:36:38.196Z,101666.56
2023-05-25T08:40:27.576Z,101669.59
2023-05-25T08:43:49.923Z,101680.94
2023-05-25T08:47:39.544Z,101671.96
2023-05-25T08:51:20.888Z,101663.46
2023-05-25T08:54:53.325Z,101675.06
2023-05-25T08:58:47.337Z,101680.36
2023-05-25T09:02:39.146Z,101680.65
2023-05-25T09:06:21.543Z,101674.88
2023-05-25T09:10:08.492Z,101684.87
2023-05-25T09:13:57.404Z,101674.85
2023-05-25T09:17:21.103Z,101673.61
2023-05-25T09:21:13.344Z,101682.92
2023-05-25T09:24:45.939Z,101686.31
2023-05-25T09:28:26.749Z,101681.92
2023-05-25T09:32:16.250Z,101684.40
2023-05-25T09:36:11.366Z,101685.14
2023-05-25T09:39:51.527Z,101685.26
2023-05-25T09:43:39.816Z,101691.46
2023-05-25T09:47:21.172Z,101693.39
2023-05-25T09:51:00.613Z,101686.23
2023-05-25T09:54:49.838Z,101686.27
2023-05-25T09:58:27.478Z,101687.17
2023-05-25T10:02:16.575Z,101692.67
2023-05-25T10:06:05.308Z,101696.89
2023-05-25T10:09:36.706Z,101697.99
2023-05-25T10:13:25.930Z,101689.11
2023-05-25T10:16:50.025Z,101697.22
2023-05-25T10:20:39.344Z,101697.33
2023-05-25T10:24:05.434Z,101701.08
2023-05-25T10:27:48.135Z,101698.61
2023-05-25T10:31:40.061Z,101696.81
2023-05-25T10:35:22.424Z,101690.13
2023-05-25T10:39:11.703Z,101699.91
2023-05-25T10:42:43.252Z,101702.01
2023-05-25T10:46:32.284Z,101695.68
2023-05-25T10:50:15.076Z,101687.01
2023-05-25T10:54:03.394Z,101689.23
2023-05-25T10:57:53.046Z,101693.14
2023-05-25T11:01:52.053Z,101693.02
2023-05-25T11:05:33.819Z,101694.27
2023-05-25T11:09:15.839Z,101690.02
2023-05-25T11:13:04.851Z,101686.39
2023-05-25T11:17:09.408Z,101688.45
2023-05-25T11:21:03.055Z,101687.69
2023-05-25T11:24:53.582Z,101684.64
2023-05-25T11:28:45.192Z,101682.35
2023-05-25T11:32:32.682Z,101676.46
2023-05-25T11:36:22.028Z,101668.15
2023-05-25T11:39:51.193Z,101668.81
2023-05-25T11:43:21.295Z,101669.10
2023-05-25T11:47:04.505Z,101669.28
2023-05-25T11:50:33.550Z,101663.45
2023-05-25T11:54:15.876Z,101658.63
2023-05-25T11:58:10.060Z,101654.74
2023-05-25T12:02:02.621Z,101659.02
2023-05-25T12:05:58.308Z,101654.37
2023-05-25T12:09:42.244Z,101663.08
2023-05-25T12:13:19.107Z,101654.75
2023-05-25T12:17:09.816Z,101650.05
2023-05-25T12:20:49.906Z,101654.08
2023-05-25T12:24:25.189Z,101652.61
2023-05-25T12:28:00.790Z,101644.16
2023-05-25T12:31:31.418Z,101640.81
2023-05-25T12:35:10.013Z,101632.29
2023-05-25T12:39:01.932Z,101646.15
2023-05-25T12:42:59.087Z,101640.04
2023-05-25T12:46:48.533Z,101638.41
2023-05-25T12:50:56.578Z,101634.16
2023-05-25T12:54:47.106Z,101628.68
2023-05-25T12:58:37.432Z,101631.06
2023-05-25T13:02:30.183Z,101629.59
2023-05-25T13:06:11.064Z,101625.95
2023-05-25T13:10:04.846Z,101619.79
2023-05-25T13:13:57.014Z,101614.27
2023-05-25T13:17:49.163Z,101617.59
2023-05-25T13:21:38.802Z,101625.27
2023-05-25T13:25:54.860Z,101620.01
2023-05-25T13:29:45.745Z,101609.77
2023-05-25T13:33:37.579Z,101603.27
2023-05-25T13:38:05.862Z,101602.34
2023-05-25T13:41:16.610Z,101603.73
2023-05-25T13:44:38.477Z,101602.18
2023-05-25T13:48:00.961Z,101594.35
2023-05-25T13:51:41.987Z,101591.77
2023-05-25T13:55:13.720Z,101582.23
2023-05-25T13:58:55.269Z,101590.86
2023-05-25T14:02:37.194Z,101588.44
2023-05-25T14:06:14.099Z,101581.56
2023-05-25T14:09:41.844Z,101566.86
2023-05-25T14:13:06.167Z,101571.95
2023-05-25T14:16:26.151Z,101568.35
2023-05-25T14:20:05.653Z,101570.15
2023-05-25T14:24:26.720Z,101569.85
2023-05-25T14:28:55.759Z,101575.80
2023-05-25T14:33:24.946Z,101576.14
2023-05-25T14:37:54.540Z,101569.90
2023-05-25T14:49:25.761Z,101560.23
2023-05-25T14:53:14.835Z,101554.75
2023-05-25T14:57:03.924Z,101559.98
2023-05-25T15:00:53.013Z,101551.17
2023-05-25T15:04:41.981Z,101560.81
2023-05-25T15:08:31.039Z,101555.52
2023-05-25T15:12:20.156Z,101556.77
2023-05-25T15:16:09.608Z,101551.13
2023-05-25T15:19:32.657Z,101547.54
2023-05-25T15:23:07.639Z,101540.57
2023-05-25T15:26:49.922Z,101540.63
2023-05-25T15:30:28.712Z,101543.09
2023-05-25T15:34:18.206Z,101537.63
2023-05-25T15:37:57.811Z,101532.30
2023-05-25T15:41:46.723Z,101532.86
2023-05-25T15:45:35.646Z,101540.08
2023-05-25T15:49:12.498Z,101535.65
2023-05-25T15:52:53.938Z,101534.73
2023-05-25T15:56:42.880Z,101534.41
2023-05-25T16:00:25.946Z,101526.98
2023-05-25T16:03:36.858Z,101530.23
2023-05-25T16:07:08.265Z,101521.21
2023-05-25T16:10:22.314Z,101520.04
2023-05-25T16:14:10.085Z,101524.01
2023-05-25T16:17:25.925Z,101527.75
2023-05-25T16:20:57.186Z,101523.89
2023-05-25T16:24:46.418Z,101515.69
2023-05-25T16:28:27.549Z,101519.96
2023-05-25T16:32:02.056Z,101518.84
2023-05-25T16:35:25.362Z,101525.14
2023-05-25T16:39:14.349Z,101514.38
2023-05-25T16:43:03.576Z,101517.22
2023-05-25T16:46:32.889Z,101519.73
2023-05-25T16:50:10.376Z,101515.26
2023-05-25T16:53:59.088Z,101513.98
2023-05-25T16:57:34.740Z,101509.45
2023-05-25T17:01:22.467Z,101511.72
2023-05-25T17:04:42.908Z,101507.73
2023-05-25T17:08:24.285Z,101509.61
2023-05-25T17:12:03.511Z,101509.09
2023-05-25T17:15:52.779Z,101507.63
2023-05-25T17:19:24.738Z,101503.95
2023-05-25T17:23:04.634Z,101505.21
2023-05-25T17:26:24.289Z,101508.80
2023-05-25T17:29:50.467Z,101510.04
2023-05-25T17:32:58.183Z,101512.65
2023-05-25T17:40:21.048Z,101518.84
2023-05-25T17:44:00.444Z,101519.63
2023-05-25T17:47:35.224Z,101518.99
2023-05-25T17:55:11.124Z,101522.04
2023-05-25T17:58:30.068Z,101520.52
2023-05-25T18:02:14.121Z,101521.55
2023-05-25T18:05:55.807Z,101523.77
2023-05-25T18:09:04.246Z,101521.02
2023-05-25T18:12:40.183Z,101524.73
2023-05-25T18:15:57.703Z,101526.54
2023-05-25T18:19:20.459Z,101527.02
2023-05-25T18:22:30.745Z,101528.69
2023-05-25T18:25:54.890Z,101530.34
2023-05-25T18:29:27.348Z,101538.89
2023-05-25T18:33:00.166Z,101542.95
2023-05-25T18:36:08.039Z,101542.27
2023-05-25T18:39:40.746Z,101540.87
2023-05-25T18:43:12.763Z,101544.64
2023-05-25T18:46:58.316Z,101546.21
2023-05-25T18:50:20.046Z,101550.61
2023-05-25T18:53:16.270Z,101553.02
2023-05-25T18:56:28.146Z,101550.49
2023-05-25T19:00:14.635Z,101552.99
2023-05-25T19:03:38.829Z,101560.00
2023-05-25T19:06:33.225Z,101557.55
2023-05-25T19:10:10.277Z,101561.78
2023-05-25T19:13:25.741Z,101565.15
2023-05-25T19:16:57.495Z,101572.41
2023-05-25T19:19:58.697Z,101578.17
2023-05-25T19:23:41.236Z,101580.30
2023-05-25T19:26:57.646Z,101585.07
2023-05-25T19:29:54.309Z,101589.45
2023-05-25T19:33:09.185Z,101591.80
2023-05-25T19:36:33.969Z,101589.27
2023-05-25T19:39:42.682Z,101592.59
2023-05-25T19:43:23.062Z,101595.34
2023-05-25T19:46:44.544Z,101595.86
2023-05-25T19:50:36.205Z,101600.70
2023-05-25T19:53:32.193Z,101603.67
2023-05-25T19:56:21.095Z,101605.80
2023-05-25T19:59:16.911Z,101603.98
2023-05-25T20:01:58.513Z,101607.80
2023-05-25T20:05:09.990Z,101605.24
2023-05-25T20:07:55.907Z,101611.63
2023-05-25T20:10:58.259Z,101611.60
2023-05-25T20:14:28.152Z,101616.73
2023-05-25T20:17:51.366Z,101620.32
2023-05-25T20:21:40.630Z,101619.63
2023-05-25T20:25:01.588Z,101624.73
2023-05-25T20:28:50.249Z,101629.70
2023-05-25T20:32:39.792Z,101631.69
2023-05-25T20:36:19.250Z,101632.84
2023-05-25T20:39:58.392Z,101628.90
2023-05-25T20:43:47.522Z,101630.60
2023-05-25T20:47:37.414Z,101632.96
2023-05-25T20:51:27.280Z,101636.70
2023-05-25T20:55:08.846Z,101638.48
2023-05-25T20:58:57.877Z,101634.24
2023-05-25T21:02:47.339Z,101636.23
2023-05-25T21:06:27.665Z,101638.16
2023-05-25T21:10:00.384Z,101641.63
2023-05-25T21:13:48.253Z,101641.30
2023-05-25T21:16:51.518Z,101649.75
2023-05-25T21:20:29.823Z,101656.93
2023-05-25T21:24:03.397Z,101660.77
2023-05-25T21:27:53.346Z,101662.17
2023-05-25T21:31:41.893Z,101661.69
2023-05-25T21:35:16.195Z,101668.03
2023-05-25T21:38:50.725Z,101672.52
2023-05-25T21:42:37.235Z,101675.29
2023-05-25T21:46:26.174Z,101673.00
2023-05-25T21:50:07.956Z,101671.73
2023-05-25T21:53:46.854Z,101674.90
2023-05-25T21:57:28.707Z,101682.08
2023-05-25T22:01:10.557Z,101688.34
2023-05-25T22:04:44.457Z,101689.42
2023-05-25T22:08:25.931Z,101688.34
2023-05-25T22:11:59.622Z,101690.23
2023-05-25T22:15:29.460Z,101689.77
2023-05-25T22:19:18.444Z,101694.84
2023-05-25T22:23:07.311Z,101695.27
2023-05-25T22:26:40.110Z,101691.79
2023-05-25T22:30:29.163Z,101694.64
2023-05-25T22:34:18.022Z,101695.83
2023-05-25T22:38:07.021Z,101698.92
2023-05-25T22:41:54.606Z,101701.27
2023-05-25T22:45:26.563Z,101706.11
2023-05-25T22:49:15.451Z,101706.77
2023-05-25T22:53:01.812Z,101710.29
2023-05-25T22:56:50.756Z,101709.90
2023-05-25T23:00:22.540Z,101708.00
2023-05-25T23:04:11.654Z,101711.52
2023-05-25T23:07:59.139Z,101711.96
2023-05-25T23:11:33.254Z,101717.84
2023-05-25T23:15:01.876Z,101713.47
2023-05-25T23:18:39.916Z,101718.46
2023-05-25T23:22:28.878Z,101716.00
2023-05-25T23:26:17.907Z,101720.11
2023-05-25T23:29:59.610Z,101724.20
2023-05-25T23:33:41.139Z,101730.38
2023-05-25T23:37:29.995Z,101733.52
2023-05-25T23:41:08.989Z,101736.86
2023-05-25T23:44:47.902Z,101735.14
2023-05-25T23:48:31.694Z,101735.34
2023-05-25T23:52:20.600Z,101731.45
2023-05-25T23:56:09.511Z,101729.15
2023-05-25T23:59:58.382Z,101729.42
